Terminal Aerodrome Forecast
Issued by NWS Wilmington, OH

Current Version | Previous Version | Graphics & Text | Print | Product List | Glossary On
Versions: 1 2 3 4 5 6 7 8 9 10 11 12 13 14 15
938
FTUS41 KILN 111131
TAFILN
TAF
KILN 111131Z 1112/1212 27008KT P6SM BKN120
     FM111600 28008KT P6SM BKN025
     FM112300 VRB03KT P6SM BKN120=

USA.gov is the U.S. government's official web portal to all federal, state and local government web resources and services.